sensor_id;sensor_type;location;lat;lon;timestamp;P1;durP1;ratioP1;P2;durP2;ratioP2
41311;SDS011;27061;41.648;24.568;2024-02-23T00:00:13;25.95;;;17.15;;
41311;SDS011;27061;41.648;24.568;2024-02-23T00:02:41;17.73;;;11.48;;
41311;SDS011;27061;41.648;24.568;2024-02-23T00:05:08;17.60;;;11.70;;
41311;SDS011;27061;41.648;24.568;2024-02-23T00:07:35;19.45;;;11.30;;
41311;SDS011;27061;41.648;24.568;2024-02-23T00:10:03;16.52;;;11.50;;
41311;SDS011;27061;41.648;24.568;2024-02-23T00:12:30;19.48;;;11.10;;
41311;SDS011;27061;41.648;24.568;2024-02-23T00:14:58;16.52;;;10.63;;
41311;SDS011;27061;41.648;24.568;2024-02-23T00:17:28;17.25;;;10.55;;
41311;SDS011;27061;41.648;24.568;2024-02-23T00:19:56;18.35;;;10.45;;
41311;SDS011;27061;41.648;24.568;2024-02-23T00:22:23;17.77;;;10.75;;
41311;SDS011;27061;41.648;24.568;2024-02-23T00:24:52;16.65;;;10.48;;
41311;SDS011;27061;41.648;24.568;2024-02-23T00:27:20;15.73;;;10.00;;
41311;SDS011;27061;41.648;24.568;2024-02-23T00:29:47;16.17;;;10.65;;
41311;SDS011;27061;41.648;24.568;2024-02-23T00:32:15;16.23;;;11.52;;
41311;SDS011;27061;41.648;24.568;2024-02-23T00:34:45;19.60;;;10.95;;
41311;SDS011;27061;41.648;24.568;2024-02-23T00:37:13;15.07;;;10.30;;
41311;SDS011;27061;41.648;24.568;2024-02-23T00:39:40;15.52;;;10.57;;
41311;SDS011;27061;41.648;24.568;2024-02-23T00:42:07;15.05;;;10.05;;
41311;SDS011;27061;41.648;24.568;2024-02-23T00:44:35;17.95;;;13.18;;
41311;SDS011;27061;41.648;24.568;2024-02-23T00:47:03;17.88;;;10.40;;
41311;SDS011;27061;41.648;24.568;2024-02-23T00:49:31;14.82;;;9.57;;
41311;SDS011;27061;41.648;24.568;2024-02-23T00:51:59;13.85;;;8.95;;
41311;SDS011;27061;41.648;24.568;2024-02-23T00:54:26;16.42;;;10.57;;
41311;SDS011;27061;41.648;24.568;2024-02-23T00:56:54;18.48;;;10.18;;
41311;SDS011;27061;41.648;24.568;2024-02-23T00:59:23;17.08;;;9.20;;
41311;SDS011;27061;41.648;24.568;2024-02-23T01:01:50;13.63;;;9.13;;
41311;SDS011;27061;41.648;24.568;2024-02-23T01:04:18;15.68;;;10.10;;
41311;SDS011;27061;41.648;24.568;2024-02-23T01:06:45;30.08;;;24.40;;
41311;SDS011;27061;41.648;24.568;2024-02-23T01:09:13;14.40;;;9.65;;
41311;SDS011;27061;41.648;24.568;2024-02-23T01:11:43;13.93;;;9.13;;
41311;SDS011;27061;41.648;24.568;2024-02-23T01:14:10;19.77;;;10.43;;
41311;SDS011;27061;41.648;24.568;2024-02-23T01:16:38;14.68;;;9.82;;
41311;SDS011;27061;41.648;24.568;2024-02-23T01:19:05;14.27;;;9.57;;
41311;SDS011;27061;41.648;24.568;2024-02-23T01:21:33;12.40;;;8.98;;
41311;SDS011;27061;41.648;24.568;2024-02-23T01:24:00;12.50;;;8.60;;
41311;SDS011;27061;41.648;24.568;2024-02-23T01:26:27;14.70;;;8.30;;
41311;SDS011;27061;41.648;24.568;2024-02-23T01:28:55;15.15;;;9.23;;
41311;SDS011;27061;41.648;24.568;2024-02-23T01:31:23;14.07;;;9.20;;
41311;SDS011;27061;41.648;24.568;2024-02-23T01:33:51;15.82;;;9.57;;
41311;SDS011;27061;41.648;24.568;2024-02-23T01:36:18;10.93;;;7.72;;
41311;SDS011;27061;41.648;24.568;2024-02-23T01:38:46;16.70;;;9.10;;
41311;SDS011;27061;41.648;24.568;2024-02-23T01:41:13;22.67;;;9.55;;
41311;SDS011;27061;41.648;24.568;2024-02-23T01:43:41;11.50;;;8.23;;
41311;SDS011;27061;41.648;24.568;2024-02-23T01:46:08;14.68;;;9.73;;
41311;SDS011;27061;41.648;24.568;2024-02-23T01:48:36;15.55;;;10.02;;
41311;SDS011;27061;41.648;24.568;2024-02-23T01:51:03;13.40;;;9.18;;
41311;SDS011;27061;41.648;24.568;2024-02-23T01:53:32;20.27;;;11.88;;
41311;SDS011;27061;41.648;24.568;2024-02-23T01:56:00;50.28;;;42.05;;
41311;SDS011;27061;41.648;24.568;2024-02-23T01:58:28;23.42;;;18.55;;
41311;SDS011;27061;41.648;24.568;2024-02-23T02:00:57;14.95;;;10.07;;
41311;SDS011;27061;41.648;24.568;2024-02-23T02:03:26;11.63;;;8.45;;
41311;SDS011;27061;41.648;24.568;2024-02-23T02:05:53;10.70;;;7.70;;
41311;SDS011;27061;41.648;24.568;2024-02-23T02:08:25;9.85;;;7.32;;
41311;SDS011;27061;41.648;24.568;2024-02-23T02:10:53;12.77;;;8.90;;
41311;SDS011;27061;41.648;24.568;2024-02-23T02:13:21;10.60;;;7.05;;
41311;SDS011;27061;41.648;24.568;2024-02-23T02:15:48;10.88;;;7.82;;
41311;SDS011;27061;41.648;24.568;2024-02-23T02:18:16;9.32;;;7.50;;
41311;SDS011;27061;41.648;24.568;2024-02-23T02:20:49;9.82;;;7.38;;
41311;SDS011;27061;41.648;24.568;2024-02-23T02:23:21;11.02;;;8.00;;
41311;SDS011;27061;41.648;24.568;2024-02-23T02:25:55;9.57;;;7.15;;
41311;SDS011;27061;41.648;24.568;2024-02-23T02:28:25;9.50;;;6.15;;
41311;SDS011;27061;41.648;24.568;2024-02-23T02:30:53;9.45;;;7.20;;
41311;SDS011;27061;41.648;24.568;2024-02-23T02:33:21;11.05;;;7.70;;
41311;SDS011;27061;41.648;24.568;2024-02-23T02:35:49;10.35;;;6.47;;
41311;SDS011;27061;41.648;24.568;2024-02-23T02:38:17;9.05;;;6.68;;
41311;SDS011;27061;41.648;24.568;2024-02-23T02:40:45;7.82;;;6.38;;
41311;SDS011;27061;41.648;24.568;2024-02-23T02:43:13;8.07;;;5.93;;
41311;SDS011;27061;41.648;24.568;2024-02-23T02:45:40;10.10;;;6.25;;
41311;SDS011;27061;41.648;24.568;2024-02-23T02:48:07;9.07;;;6.30;;
41311;SDS011;27061;41.648;24.568;2024-02-23T02:50:35;9.25;;;6.40;;
41311;SDS011;27061;41.648;24.568;2024-02-23T02:53:02;11.52;;;7.18;;
41311;SDS011;27061;41.648;24.568;2024-02-23T02:55:31;9.38;;;6.82;;
41311;SDS011;27061;41.648;24.568;2024-02-23T02:57:58;6.35;;;5.38;;
41311;SDS011;27061;41.648;24.568;2024-02-23T03:00:25;8.43;;;6.60;;
41311;SDS011;27061;41.648;24.568;2024-02-23T03:02:53;6.85;;;5.65;;
41311;SDS011;27061;41.648;24.568;2024-02-23T03:05:20;6.63;;;5.03;;
41311;SDS011;27061;41.648;24.568;2024-02-23T03:07:48;7.10;;;5.55;;
41311;SDS011;27061;41.648;24.568;2024-02-23T03:10:15;6.43;;;5.68;;
41311;SDS011;27061;41.648;24.568;2024-02-23T03:12:43;6.00;;;4.63;;
41311;SDS011;27061;41.648;24.568;2024-02-23T03:15:10;11.65;;;5.18;;
41311;SDS011;27061;41.648;24.568;2024-02-23T03:17:38;7.43;;;5.25;;
41311;SDS011;27061;41.648;24.568;2024-02-23T03:20:05;6.60;;;5.00;;
41311;SDS011;27061;41.648;24.568;2024-02-23T03:22:36;7.75;;;4.90;;
41311;SDS011;27061;41.648;24.568;2024-02-23T03:25:04;7.40;;;6.18;;
41311;SDS011;27061;41.648;24.568;2024-02-23T03:27:35;6.32;;;5.05;;
41311;SDS011;27061;41.648;24.568;2024-02-23T03:30:04;7.85;;;5.93;;
41311;SDS011;27061;41.648;24.568;2024-02-23T03:32:32;6.05;;;4.22;;
41311;SDS011;27061;41.648;24.568;2024-02-23T03:35:03;6.20;;;4.90;;
41311;SDS011;27061;41.648;24.568;2024-02-23T03:37:32;8.10;;;5.38;;
41311;SDS011;27061;41.648;24.568;2024-02-23T03:40:00;19.25;;;7.88;;
41311;SDS011;27061;41.648;24.568;2024-02-23T03:42:27;10.93;;;5.82;;
41311;SDS011;27061;41.648;24.568;2024-02-23T03:44:55;8.60;;;5.47;;
41311;SDS011;27061;41.648;24.568;2024-02-23T03:47:22;8.10;;;5.45;;
41311;SDS011;27061;41.648;24.568;2024-02-23T03:49:52;5.93;;;4.90;;
41311;SDS011;27061;41.648;24.568;2024-02-23T03:52:20;7.38;;;5.90;;
41311;SDS011;27061;41.648;24.568;2024-02-23T03:54:48;6.22;;;4.47;;
41311;SDS011;27061;41.648;24.568;2024-02-23T03:57:16;6.55;;;4.20;;
41311;SDS011;27061;41.648;24.568;2024-02-23T03:59:53;6.43;;;5.40;;
41311;SDS011;27061;41.648;24.568;2024-02-23T04:02:21;3.90;;;3.55;;
41311;SDS011;27061;41.648;24.568;2024-02-23T04:04:49;4.00;;;3.67;;
41311;SDS011;27061;41.648;24.568;2024-02-23T04:07:17;5.70;;;3.72;;
41311;SDS011;27061;41.648;24.568;2024-02-23T04:09:45;7.10;;;4.28;;
41311;SDS011;27061;41.648;24.568;2024-02-23T04:12:19;4.82;;;4.07;;
41311;SDS011;27061;41.648;24.568;2024-02-23T04:14:47;6.10;;;5.10;;
41311;SDS011;27061;41.648;24.568;2024-02-23T04:17:15;8.50;;;4.72;;
41311;SDS011;27061;41.648;24.568;2024-02-23T04:19:43;3.97;;;3.58;;
41311;SDS011;27061;41.648;24.568;2024-02-23T04:22:11;4.93;;;3.80;;
41311;SDS011;27061;41.648;24.568;2024-02-23T04:24:39;3.92;;;3.50;;
41311;SDS011;27061;41.648;24.568;2024-02-23T04:27:07;4.45;;;3.97;;
41311;SDS011;27061;41.648;24.568;2024-02-23T04:29:35;16.88;;;15.38;;
41311;SDS011;27061;41.648;24.568;2024-02-23T04:32:03;4.50;;;4.10;;
41311;SDS011;27061;41.648;24.568;2024-02-23T04:34:31;7.03;;;4.60;;
41311;SDS011;27061;41.648;24.568;2024-02-23T04:37:01;4.78;;;3.85;;
41311;SDS011;27061;41.648;24.568;2024-02-23T04:39:29;5.85;;;2.97;;
41311;SDS011;27061;41.648;24.568;2024-02-23T04:41:56;3.05;;;2.83;;
41311;SDS011;27061;41.648;24.568;2024-02-23T04:44:24;3.15;;;2.95;;
41311;SDS011;27061;41.648;24.568;2024-02-23T04:46:51;3.33;;;2.58;;
41311;SDS011;27061;41.648;24.568;2024-02-23T04:49:19;3.88;;;3.05;;
41311;SDS011;27061;41.648;24.568;2024-02-23T04:51:46;3.75;;;2.63;;
41311;SDS011;27061;41.648;24.568;2024-02-23T04:54:13;3.10;;;2.83;;
41311;SDS011;27061;41.648;24.568;2024-02-23T04:56:41;3.95;;;3.08;;
41311;SDS011;27061;41.648;24.568;2024-02-23T04:59:08;3.80;;;3.10;;
41311;SDS011;27061;41.648;24.568;2024-02-23T05:01:36;2.10;;;1.95;;
41311;SDS011;27061;41.648;24.568;2024-02-23T05:04:04;5.25;;;2.67;;
41311;SDS011;27061;41.648;24.568;2024-02-23T05:06:32;3.25;;;2.95;;
41311;SDS011;27061;41.648;24.568;2024-02-23T05:08:59;2.42;;;2.22;;
41311;SDS011;27061;41.648;24.568;2024-02-23T05:11:26;2.08;;;1.98;;
41311;SDS011;27061;41.648;24.568;2024-02-23T05:13:54;4.78;;;2.40;;
41311;SDS011;27061;41.648;24.568;2024-02-23T05:16:21;2.47;;;2.30;;
41311;SDS011;27061;41.648;24.568;2024-02-23T05:18:49;7.50;;;2.42;;
41311;SDS011;27061;41.648;24.568;2024-02-23T05:21:17;4.18;;;2.50;;
41311;SDS011;27061;41.648;24.568;2024-02-23T05:23:44;2.10;;;1.98;;
41311;SDS011;27061;41.648;24.568;2024-02-23T05:26:13;3.50;;;2.80;;
41311;SDS011;27061;41.648;24.568;2024-02-23T05:28:40;4.20;;;3.78;;
41311;SDS011;27061;41.648;24.568;2024-02-23T05:31:10;3.53;;;3.13;;
41311;SDS011;27061;41.648;24.568;2024-02-23T05:33:38;3.15;;;2.40;;
41311;SDS011;27061;41.648;24.568;2024-02-23T05:36:06;4.20;;;2.20;;
41311;SDS011;27061;41.648;24.568;2024-02-23T05:38:34;3.45;;;2.25;;
41311;SDS011;27061;41.648;24.568;2024-02-23T05:41:02;8.75;;;6.30;;
41311;SDS011;27061;41.648;24.568;2024-02-23T05:43:32;3.50;;;3.20;;
41311;SDS011;27061;41.648;24.568;2024-02-23T05:45:59;3.42;;;2.83;;
41311;SDS011;27061;41.648;24.568;2024-02-23T05:48:27;4.93;;;2.78;;
41311;SDS011;27061;41.648;24.568;2024-02-23T05:50:54;2.40;;;2.20;;
41311;SDS011;27061;41.648;24.568;2024-02-23T05:53:22;2.63;;;1.90;;
41311;SDS011;27061;41.648;24.568;2024-02-23T05:55:50;1.38;;;1.35;;
41311;SDS011;27061;41.648;24.568;2024-02-23T05:58:19;3.53;;;3.33;;
41311;SDS011;27061;41.648;24.568;2024-02-23T06:00:49;4.82;;;4.53;;
41311;SDS011;27061;41.648;24.568;2024-02-23T06:03:18;2.00;;;1.90;;
41311;SDS011;27061;41.648;24.568;2024-02-23T06:05:47;1.70;;;1.60;;
41311;SDS011;27061;41.648;24.568;2024-02-23T06:08:15;2.35;;;2.15;;
41311;SDS011;27061;41.648;24.568;2024-02-23T06:10:43;3.80;;;2.72;;
41311;SDS011;27061;41.648;24.568;2024-02-23T06:13:11;2.05;;;1.85;;
41311;SDS011;27061;41.648;24.568;2024-02-23T06:15:39;59.95;;;15.35;;
41311;SDS011;27061;41.648;24.568;2024-02-23T06:18:07;5.22;;;3.42;;
41311;SDS011;27061;41.648;24.568;2024-02-23T06:20:35;2.70;;;2.50;;
41311;SDS011;27061;41.648;24.568;2024-02-23T06:23:05;4.95;;;4.55;;
41311;SDS011;27061;41.648;24.568;2024-02-23T06:25:34;2.40;;;2.20;;
41311;SDS011;27061;41.648;24.568;2024-02-23T06:28:03;2.47;;;2.28;;
41311;SDS011;27061;41.648;24.568;2024-02-23T06:30:30;1.90;;;1.80;;
41311;SDS011;27061;41.648;24.568;2024-02-23T06:32:58;14.77;;;2.20;;
41311;SDS011;27061;41.648;24.568;2024-02-23T06:35:26;3.17;;;2.20;;
41311;SDS011;27061;41.648;24.568;2024-02-23T06:37:54;2.70;;;1.85;;
41311;SDS011;27061;41.648;24.568;2024-02-23T06:40:22;1.58;;;1.45;;
41311;SDS011;27061;41.648;24.568;2024-02-23T06:42:52;2.38;;;2.17;;
41311;SDS011;27061;41.648;24.568;2024-02-23T06:45:20;2.65;;;2.42;;
41311;SDS011;27061;41.648;24.568;2024-02-23T06:47:52;8.73;;;8.00;;
41311;SDS011;27061;41.648;24.568;2024-02-23T06:50:21;3.10;;;2.65;;
41311;SDS011;27061;41.648;24.568;2024-02-23T06:52:53;1.80;;;1.70;;
41311;SDS011;27061;41.648;24.568;2024-02-23T06:55:24;2.10;;;1.88;;
41311;SDS011;27061;41.648;24.568;2024-02-23T06:57:56;3.88;;;1.60;;
41311;SDS011;27061;41.648;24.568;2024-02-23T07:00:25;1.85;;;1.70;;
41311;SDS011;27061;41.648;24.568;2024-02-23T07:02:52;2.80;;;1.83;;
41311;SDS011;27061;41.648;24.568;2024-02-23T07:05:22;3.15;;;2.33;;
41311;SDS011;27061;41.648;24.568;2024-02-23T07:07:55;1.52;;;1.42;;
41311;SDS011;27061;41.648;24.568;2024-02-23T07:10:25;1.60;;;1.50;;
41311;SDS011;27061;41.648;24.568;2024-02-23T07:12:54;3.28;;;2.10;;
41311;SDS011;27061;41.648;24.568;2024-02-23T07:15:23;2.33;;;1.65;;
41311;SDS011;27061;41.648;24.568;2024-02-23T07:17:56;3.08;;;1.92;;
41311;SDS011;27061;41.648;24.568;2024-02-23T07:20:26;1.35;;;1.25;;
41311;SDS011;27061;41.648;24.568;2024-02-23T07:22:55;1.95;;;1.40;;
41311;SDS011;27061;41.648;24.568;2024-02-23T07:25:24;1.60;;;1.50;;
41311;SDS011;27061;41.648;24.568;2024-02-23T07:27:51;10.18;;;2.10;;
41311;SDS011;27061;41.648;24.568;2024-02-23T07:30:23;1.23;;;1.13;;
41311;SDS011;27061;41.648;24.568;2024-02-23T07:32:53;3.78;;;3.58;;
41311;SDS011;27061;41.648;24.568;2024-02-23T07:35:21;5.60;;;3.67;;
41311;SDS011;27061;41.648;24.568;2024-02-23T07:37:52;2.35;;;2.03;;
41311;SDS011;27061;41.648;24.568;2024-02-23T07:40:22;1.40;;;1.30;;
41311;SDS011;27061;41.648;24.568;2024-02-23T07:42:51;1.80;;;1.30;;
41311;SDS011;27061;41.648;24.568;2024-02-23T07:45:19;7.40;;;2.28;;
41311;SDS011;27061;41.648;24.568;2024-02-23T07:47:47;1.20;;;1.20;;
41311;SDS011;27061;41.648;24.568;2024-02-23T07:50:15;1.23;;;1.13;;
41311;SDS011;27061;41.648;24.568;2024-02-23T07:52:45;3.22;;;1.30;;
41311;SDS011;27061;41.648;24.568;2024-02-23T07:55:16;0.90;;;0.90;;
41311;SDS011;27061;41.648;24.568;2024-02-23T07:57:45;3.08;;;2.20;;
41311;SDS011;27061;41.648;24.568;2024-02-23T08:00:15;1.00;;;1.00;;
41311;SDS011;27061;41.648;24.568;2024-02-23T08:02:49;1.70;;;1.60;;
41311;SDS011;27061;41.648;24.568;2024-02-23T08:05:18;1.40;;;1.30;;
41311;SDS011;27061;41.648;24.568;2024-02-23T08:07:47;1.38;;;1.27;;
41311;SDS011;27061;41.648;24.568;2024-02-23T08:10:20;1.75;;;1.00;;
41311;SDS011;27061;41.648;24.568;2024-02-23T08:12:49;0.80;;;0.80;;
41311;SDS011;27061;41.648;24.568;2024-02-23T08:15:21;2.20;;;0.90;;
41311;SDS011;27061;41.648;24.568;2024-02-23T08:17:49;1.17;;;1.17;;
41311;SDS011;27061;41.648;24.568;2024-02-23T08:20:17;1.30;;;1.20;;
41311;SDS011;27061;41.648;24.568;2024-02-23T08:22:45;1.85;;;1.75;;
41311;SDS011;27061;41.648;24.568;2024-02-23T08:25:13;1.30;;;1.20;;
41311;SDS011;27061;41.648;24.568;2024-02-23T08:27:42;4.97;;;0.63;;
41311;SDS011;27061;41.648;24.568;2024-02-23T08:30:10;0.70;;;0.70;;
41311;SDS011;27061;41.648;24.568;2024-02-23T08:32:43;1.55;;;0.95;;
41311;SDS011;27061;41.648;24.568;2024-02-23T08:35:11;0.93;;;0.82;;
41311;SDS011;27061;41.648;24.568;2024-02-23T08:37:40;2.15;;;1.13;;
41311;SDS011;27061;41.648;24.568;2024-02-23T08:40:09;1.30;;;1.20;;
41311;SDS011;27061;41.648;24.568;2024-02-23T08:42:39;0.85;;;0.85;;
41311;SDS011;27061;41.648;24.568;2024-02-23T08:45:10;3.55;;;2.05;;
41311;SDS011;27061;41.648;24.568;2024-02-23T08:47:41;6.25;;;5.75;;
41311;SDS011;27061;41.648;24.568;2024-02-23T08:50:14;1.02;;;1.02;;
41311;SDS011;27061;41.648;24.568;2024-02-23T08:52:42;1.55;;;1.20;;
41311;SDS011;27061;41.648;24.568;2024-02-23T08:55:12;8.55;;;1.40;;
41311;SDS011;27061;41.648;24.568;2024-02-23T08:57:40;2.15;;;1.75;;
41311;SDS011;27061;41.648;24.568;2024-02-23T09:00:08;0.90;;;0.90;;
41311;SDS011;27061;41.648;24.568;2024-02-23T09:02:40;15.23;;;5.03;;
41311;SDS011;27061;41.648;24.568;2024-02-23T09:05:11;6.07;;;1.20;;
41311;SDS011;27061;41.648;24.568;2024-02-23T09:07:39;0.95;;;0.95;;
41311;SDS011;27061;41.648;24.568;2024-02-23T09:10:07;2.10;;;2.00;;
41311;SDS011;27061;41.648;24.568;2024-02-23T09:12:35;1.05;;;1.05;;
41311;SDS011;27061;41.648;24.568;2024-02-23T09:15:03;1.20;;;1.10;;
41311;SDS011;27061;41.648;24.568;2024-02-23T09:17:39;1.88;;;1.05;;
41311;SDS011;27061;41.648;24.568;2024-02-23T09:20:11;4.35;;;0.90;;
41311;SDS011;27061;41.648;24.568;2024-02-23T09:22:48;1.00;;;0.97;;
41311;SDS011;27061;41.648;24.568;2024-02-23T09:25:18;0.93;;;0.93;;
41311;SDS011;27061;41.648;24.568;2024-02-23T09:27:48;3.45;;;1.70;;
41311;SDS011;27061;41.648;24.568;2024-02-23T09:30:19;0.82;;;0.82;;
41311;SDS011;27061;41.648;24.568;2024-02-23T09:32:48;0.68;;;0.68;;
41311;SDS011;27061;41.648;24.568;2024-02-23T09:35:20;1.20;;;0.85;;
41311;SDS011;27061;41.648;24.568;2024-02-23T09:37:48;3.95;;;0.88;;
41311;SDS011;27061;41.648;24.568;2024-02-23T09:40:16;2.83;;;1.00;;
41311;SDS011;27061;41.648;24.568;2024-02-23T09:42:50;2.25;;;1.20;;
41311;SDS011;27061;41.648;24.568;2024-02-23T09:45:25;1.55;;;1.25;;
41311;SDS011;27061;41.648;24.568;2024-02-23T09:48:00;8.98;;;2.40;;
41311;SDS011;27061;41.648;24.568;2024-02-23T09:50:34;1.77;;;1.63;;
41311;SDS011;27061;41.648;24.568;2024-02-23T09:53:06;1.80;;;1.25;;
41311;SDS011;27061;41.648;24.568;2024-02-23T09:55:42;0.80;;;0.80;;
41311;SDS011;27061;41.648;24.568;2024-02-23T09:58:14;1.90;;;1.30;;
41311;SDS011;27061;41.648;24.568;2024-02-23T10:00:47;2.60;;;0.90;;
41311;SDS011;27061;41.648;24.568;2024-02-23T10:03:17;1.52;;;1.00;;
41311;SDS011;27061;41.648;24.568;2024-02-23T10:05:48;0.80;;;0.80;;
41311;SDS011;27061;41.648;24.568;2024-02-23T10:08:21;5.80;;;0.98;;
41311;SDS011;27061;41.648;24.568;2024-02-23T10:10:49;6.13;;;2.22;;
41311;SDS011;27061;41.648;24.568;2024-02-23T10:13:24;0.95;;;0.77;;
41311;SDS011;27061;41.648;24.568;2024-02-23T10:15:52;2.15;;;0.80;;
41311;SDS011;27061;41.648;24.568;2024-02-23T10:18:44;3.70;;;0.90;;
41311;SDS011;27061;41.648;24.568;2024-02-23T10:21:12;0.90;;;0.90;;
41311;SDS011;27061;41.648;24.568;2024-02-23T10:23:40;1.30;;;1.20;;
41311;SDS011;27061;41.648;24.568;2024-02-23T10:26:10;1.10;;;1.10;;
41311;SDS011;27061;41.648;24.568;2024-02-23T10:28:40;0.77;;;0.77;;
41311;SDS011;27061;41.648;24.568;2024-02-23T10:31:08;0.95;;;0.95;;
41311;SDS011;27061;41.648;24.568;2024-02-23T10:33:39;1.48;;;1.38;;
41311;SDS011;27061;41.648;24.568;2024-02-23T10:36:09;1.10;;;1.10;;
41311;SDS011;27061;41.648;24.568;2024-02-23T10:38:46;1.15;;;1.00;;
41311;SDS011;27061;41.648;24.568;2024-02-23T10:41:16;1.45;;;1.35;;
41311;SDS011;27061;41.648;24.568;2024-02-23T10:43:50;1.40;;;1.30;;
41311;SDS011;27061;41.648;24.568;2024-02-23T10:46:21;2.95;;;2.58;;
41311;SDS011;27061;41.648;24.568;2024-02-23T10:48:52;2.17;;;1.30;;
41311;SDS011;27061;41.648;24.568;2024-02-23T10:51:37;8.77;;;5.25;;
41311;SDS011;27061;41.648;24.568;2024-02-23T10:54:10;2.58;;;2.00;;
41311;SDS011;27061;41.648;24.568;2024-02-23T10:56:42;2.05;;;1.92;;
41311;SDS011;27061;41.648;24.568;2024-02-23T10:59:13;4.57;;;1.30;;
41311;SDS011;27061;41.648;24.568;2024-02-23T11:01:49;1.33;;;1.17;;
41311;SDS011;27061;41.648;24.568;2024-02-23T11:04:20;0.93;;;0.93;;
41311;SDS011;27061;41.648;24.568;2024-02-23T11:06:56;1.05;;;0.93;;
41311;SDS011;27061;41.648;24.568;2024-02-23T11:09:33;1.30;;;1.30;;
41311;SDS011;27061;41.648;24.568;2024-02-23T11:12:04;2.92;;;1.67;;
41311;SDS011;27061;41.648;24.568;2024-02-23T11:14:34;1.85;;;1.75;;
41311;SDS011;27061;41.648;24.568;2024-02-23T11:17:06;2.53;;;1.10;;
41311;SDS011;27061;41.648;24.568;2024-02-23T11:19:50;1.10;;;1.10;;
41311;SDS011;27061;41.648;24.568;2024-02-23T11:22:25;1.42;;;1.33;;
41311;SDS011;27061;41.648;24.568;2024-02-23T11:25:05;1.50;;;1.30;;
41311;SDS011;27061;41.648;24.568;2024-02-23T11:27:42;0.98;;;0.98;;
41311;SDS011;27061;41.648;24.568;2024-02-23T11:30:18;2.08;;;1.38;;
41311;SDS011;27061;41.648;24.568;2024-02-23T11:32:48;1.23;;;1.20;;
41311;SDS011;27061;41.648;24.568;2024-02-23T11:35:16;2.90;;;2.70;;
41311;SDS011;27061;41.648;24.568;2024-02-23T11:37:49;2.35;;;1.40;;
41311;SDS011;27061;41.648;24.568;2024-02-23T11:40:31;3.08;;;1.58;;
41311;SDS011;27061;41.648;24.568;2024-02-23T11:42:59;2.22;;;2.00;;
41311;SDS011;27061;41.648;24.568;2024-02-23T11:45:30;1.60;;;1.50;;
41311;SDS011;27061;41.648;24.568;2024-02-23T11:47:58;1.73;;;1.63;;
41311;SDS011;27061;41.648;24.568;2024-02-23T11:50:27;3.20;;;1.60;;
41311;SDS011;27061;41.648;24.568;2024-02-23T11:52:55;1.80;;;1.70;;
41311;SDS011;27061;41.648;24.568;2024-02-23T11:55:22;1.70;;;1.60;;
41311;SDS011;27061;41.648;24.568;2024-02-23T11:57:52;1.70;;;1.60;;
41311;SDS011;27061;41.648;24.568;2024-02-23T12:00:33;3.05;;;2.78;;
41311;SDS011;27061;41.648;24.568;2024-02-23T12:03:02;1.90;;;1.77;;
41311;SDS011;27061;41.648;24.568;2024-02-23T12:05:33;1.73;;;1.63;;
41311;SDS011;27061;41.648;24.568;2024-02-23T12:08:04;1.80;;;1.70;;
41311;SDS011;27061;41.648;24.568;2024-02-23T12:10:33;1.83;;;1.73;;
41311;SDS011;27061;41.648;24.568;2024-02-23T12:13:01;2.30;;;2.08;;
41311;SDS011;27061;41.648;24.568;2024-02-23T12:15:30;4.70;;;2.20;;
41311;SDS011;27061;41.648;24.568;2024-02-23T12:17:58;2.92;;;1.75;;
41311;SDS011;27061;41.648;24.568;2024-02-23T12:20:28;7.38;;;3.50;;
41311;SDS011;27061;41.648;24.568;2024-02-23T12:23:03;2.72;;;2.10;;
41311;SDS011;27061;41.648;24.568;2024-02-23T12:25:33;2.33;;;2.13;;
41311;SDS011;27061;41.648;24.568;2024-02-23T12:28:00;2.63;;;2.20;;
41311;SDS011;27061;41.648;24.568;2024-02-23T12:30:30;3.75;;;2.80;;
41311;SDS011;27061;41.648;24.568;2024-02-23T12:33:10;1.92;;;1.83;;
41311;SDS011;27061;41.648;24.568;2024-02-23T12:35:38;2.35;;;2.20;;
41311;SDS011;27061;41.648;24.568;2024-02-23T12:38:06;2.20;;;2.10;;
41311;SDS011;27061;41.648;24.568;2024-02-23T12:40:34;2.85;;;1.70;;
41311;SDS011;27061;41.648;24.568;2024-02-23T12:43:02;2.47;;;2.15;;
41311;SDS011;27061;41.648;24.568;2024-02-23T12:45:30;2.70;;;2.50;;
41311;SDS011;27061;41.648;24.568;2024-02-23T12:47:58;2.08;;;1.90;;
41311;SDS011;27061;41.648;24.568;2024-02-23T12:50:29;2.30;;;2.20;;
41311;SDS011;27061;41.648;24.568;2024-02-23T12:52:58;2.17;;;2.08;;
41311;SDS011;27061;41.648;24.568;2024-02-23T12:55:28;2.70;;;2.50;;
41311;SDS011;27061;41.648;24.568;2024-02-23T12:57:58;2.20;;;2.10;;
41311;SDS011;27061;41.648;24.568;2024-02-23T13:00:26;2.63;;;2.42;;
41311;SDS011;27061;41.648;24.568;2024-02-23T13:02:54;4.85;;;2.90;;
41311;SDS011;27061;41.648;24.568;2024-02-23T13:05:24;2.78;;;2.58;;
41311;SDS011;27061;41.648;24.568;2024-02-23T13:07:59;2.10;;;2.00;;
41311;SDS011;27061;41.648;24.568;2024-02-23T13:10:29;2.22;;;2.13;;
41311;SDS011;27061;41.648;24.568;2024-02-23T13:12:58;2.58;;;2.20;;
41311;SDS011;27061;41.648;24.568;2024-02-23T13:15:26;3.53;;;3.28;;
41311;SDS011;27061;41.648;24.568;2024-02-23T13:17:55;2.47;;;2.28;;
41311;SDS011;27061;41.648;24.568;2024-02-23T13:20:24;3.05;;;2.85;;
41311;SDS011;27061;41.648;24.568;2024-02-23T13:22:51;3.03;;;2.83;;
41311;SDS011;27061;41.648;24.568;2024-02-23T13:25:20;2.88;;;2.67;;
41311;SDS011;27061;41.648;24.568;2024-02-23T13:27:49;2.88;;;2.67;;
41311;SDS011;27061;41.648;24.568;2024-02-23T13:30:17;3.00;;;2.58;;
41311;SDS011;27061;41.648;24.568;2024-02-23T13:32:46;3.67;;;3.15;;
41311;SDS011;27061;41.648;24.568;2024-02-23T13:35:14;3.13;;;2.85;;
41311;SDS011;27061;41.648;24.568;2024-02-23T13:37:45;2.97;;;2.70;;
41311;SDS011;27061;41.648;24.568;2024-02-23T13:40:12;4.57;;;3.50;;
41311;SDS011;27061;41.648;24.568;2024-02-23T13:42:42;2.95;;;2.75;;
41311;SDS011;27061;41.648;24.568;2024-02-23T13:45:13;2.75;;;2.55;;
41311;SDS011;27061;41.648;24.568;2024-02-23T13:47:41;4.57;;;2.80;;
41311;SDS011;27061;41.648;24.568;2024-02-23T13:50:11;9.52;;;3.38;;
41311;SDS011;27061;41.648;24.568;2024-02-23T13:52:40;4.13;;;3.83;;
41311;SDS011;27061;41.648;24.568;2024-02-23T13:55:08;3.58;;;3.03;;
41311;SDS011;27061;41.648;24.568;2024-02-23T13:57:37;2.83;;;2.63;;
41311;SDS011;27061;41.648;24.568;2024-02-23T14:00:06;2.92;;;2.72;;
41311;SDS011;27061;41.648;24.568;2024-02-23T14:02:40;3.43;;;2.87;;
41311;SDS011;27061;41.648;24.568;2024-02-23T14:05:09;3.88;;;3.30;;
41311;SDS011;27061;41.648;24.568;2024-02-23T14:07:38;5.32;;;3.40;;
41311;SDS011;27061;41.648;24.568;2024-02-23T14:10:06;3.15;;;2.95;;
41311;SDS011;27061;41.648;24.568;2024-02-23T14:12:34;4.63;;;3.25;;
41311;SDS011;27061;41.648;24.568;2024-02-23T14:15:03;3.15;;;2.95;;
41311;SDS011;27061;41.648;24.568;2024-02-23T14:17:32;3.45;;;3.25;;
41311;SDS011;27061;41.648;24.568;2024-02-23T14:20:02;3.42;;;3.13;;
41311;SDS011;27061;41.648;24.568;2024-02-23T14:22:30;2.92;;;2.72;;
41311;SDS011;27061;41.648;24.568;2024-02-23T14:25:00;3.13;;;2.90;;
41311;SDS011;27061;41.648;24.568;2024-02-23T14:27:28;6.07;;;5.47;;
41311;SDS011;27061;41.648;24.568;2024-02-23T14:29:59;29.58;;;23.85;;
41311;SDS011;27061;41.648;24.568;2024-02-23T14:32:27;5.90;;;4.75;;
41311;SDS011;27061;41.648;24.568;2024-02-23T14:34:58;6.55;;;3.92;;
41311;SDS011;27061;41.648;24.568;2024-02-23T14:37:30;3.95;;;3.60;;
41311;SDS011;27061;41.648;24.568;2024-02-23T14:39:58;5.10;;;4.38;;
41311;SDS011;27061;41.648;24.568;2024-02-23T14:42:26;7.05;;;6.35;;